RJOA/HIJ METAR and TAF weather

Enter ICAO airport designator
Station Type Date Time Source
RJOA METAR 2019/05/20 11:06 UTC NOAA

RJOA 201106Z 31007KT 2500 R10/0800VP1800U -SHRA BCFG BR FEW000 SCT006 BKN015 17/16 Q1005 RMK 1ST000 3ST006 5CU015 A2969 FG SE AND S-SW


Station Type Date Time Source
RJOA Decoded METAR 2019/05/20 11:06 UTC NOAA

Hiroshima Airport, Japan (RJOA) 34-26N 132-55E 334M
May 20, 2019 - 07:06 AM EDT / 2019.05.20 1106 UTC
Wind: from the NW (310 degrees) at 8 MPH (7 KT):0
Visibility: 1 mile(s):0
Sky conditions: mostly cloudy
Weather: light rain showers; patches of fog; mist
Temperature: 62 F (17 C)
Dew Point: 60 F (16 C)
Relative Humidity: 93%
Pressure (altimeter): 29.68 in. Hg (1005 hPa)
ob: RJOA 201106Z 31007KT 2500 R10/0800VP1800U -SHRA BCFG BR FEW000 SCT006 BKN015 17/16 Q1005 RMK 1ST000 3ST006 5CU015 A2969 FG SE AND S-SW
cycle: 11

Station Type Date Time Source
RJOA TAF 2019/05/20 12:30 UTC NOAA

TAF RJOA 201105Z 2012/2118 31006KT 4000 -SHRA BR BCFG FEW000 SCT005 BKN008
TEMPO 2012/2014 1500 SHRA BR BCFG FEW000 SCT003 BKN005
BECMG 2014/2016 9999 NSW FEW015 SCT040

Example: see airport list